Terminal Aerodrome Forecast
Issued by NWS

Home | Current Version | Previous Version | Text Only | Print | Product List | Glossary On
Versions: 1 2 3 4 5 6 7 8 9 10 11 12 13 14 15 16 17 18 19
000
FTUS44 KBMX 231100
TAFTOI
TAF
KTOI 231132Z 2312/2412 02006KT 5SM BR OVC003
      TEMPO 2313/2314 OVC007
     FM231400 05006KT P6SM BKN012
     FM231600 06010KT P6SM SCT035
     FM240000 03004KT P6SM SKC
      TEMPO 2409/2412 5SM BR BKN012=

USA.gov is the U.S. government's official web portal to all federal, state and local government web resources and services.